Main page
METAR-TAF:

METAR-TAF

Airports :

Allama Iqbal International Airport

Lahore, Pakistan

latitude: 31-31N, longitude: 074-24E, elevation: 216 m

Current weather observation

The report was made 22 minutes ago, at 02:55 UTC
Calm wind
Temperature 22°C
Humidity 78%
Pressure 1012 hPa
Visibility: 2500 m
smoke

METAR: OPLA 190255Z 00000KT 2500 FU NSC 22/18 Q1012 BECMG 3000 RMK QFE986 RMK A29.87

Time: 08:17 (03:17 UTC)

Forecast

The report was made 5 hours and 32 minutes ago, at 21:45 UTC
Forecast valid from 19 at 00 UTC to 20 at 06 UTC
Wind 5 kt from the North/Northwest
Visibility: 4000 m
smoke
Temporary
from 19 at 01 UTC to 19 at 03 UTC
Wind 3 kt from variable directions
Visibility: 2000 m
mist
From UTC
Wind 5 kt from the North/Northwest
Visibility: 6000 m
From UTC
Wind 5 kt from the West/Northwest
Visibility: 4000 m
Scattered clouds at a height of 10000 ft
smoke

TAF: OPLA 182145Z 1900/2006 33005KT 4000 FU NSC TX30/1910Z TN19/2000Z TEMPO 1901/1903 VRB03KT 2000 BR FM 190700 34005KT 6000 NSC FM 191500 30005KT 4000 FU SCT100

Weather observations and forecasts of more than 4000 airports (METAR and TAF reports).

The available stations are represented by yellow and red dots on the map.

Hover mouse over dot to see the name of the station.

Then click to see weather observations and forecasts.

To change the map : click on the green buttons with a black cross to zoom in, on the green button with a dash to zoom out, or on the green arrows for adjacent maps.


METAR-TAF: